Bettina K — PBEW — position and weather

sailwx.info

Track history (hours):
 
Tides and Currents Weather Stations Pressure Air Temp Water Temp Dewpoint Dewpoint Depression Visibility Wind Speed Wind Dir Waves Ship Positions

Bettina K

Last reported at 2016-May-31 00:11 UTC. Time now 2016-May-31 10:03 UTC.
Position N 53°36' E 005°08'.

Length 82 m; draft 4.8 m.

Type: Ship. MMSI: 244730469.

Date/timePositionNaut miles runAvg speedWind from/ knotsBaromVisibWave heightAir tempDewpointWater temp
2016-May-31 00:11N 53°36' E 005°08'6 8.8
2016-May-30 23:33N 53°37' E 005°17'9 9.5
2016-May-30 22:33N 53°40' E 005°32'1110.6
2016-May-30 21:32N 53°43' E 005°50'1110.8
2016-May-30 20:33N 53°47' E 006°07'1111.2
2016-May-30 19:33N 53°50' E 006°25'1110.8
2016-May-30 18:33N 53°53' E 006°43'1010.2
2016-May-30 17:33N 53°55' E 006°59'10 9.6
2016-May-30 16:31N 53°57' E 007°16'9 9.2
2016-May-30 15:33N 53°60' E 007°30'9 9.2
2016-May-30 14:33N 54°02' E 007°46'9 9.0
2016-May-30 13:33N 54°01' E 008°01'10 9.5
2016-May-30 12:33N 54°01' E 008°17'1111.1
2016-May-30 11:32N 53°58' E 008°36'1212.2
2016-May-30 10:33N 53°50' E 008°52'1110.5
2016-May-30 09:33N 53°54' E 009°09'0 0.4
2016-May-30 08:33N 53°54' E 009°09'0 0.0
2016-May-30 07:33N 53°54' E 009°09'8 7.9
2016-May-30 06:33N 54°00' E 009°18'15 6.8
2016-May-30 04:23N 54°12' E 009°33'5 5.5
2016-May-30 03:28N 54°16' E 009°38'9 8.0
2016-May-30 02:21N 54°22' E 009°50'6 7.9
2016-May-30 01:33N 54°21' E 010°00'5 4.9
2016-May-30 00:33N 54°22' E 010°09'4 4.1
2016-May-29 23:33N 54°25' E 010°13'9 9.4
2016-May-29 22:33N 54°32' E 010°24'1010.0
2016-May-29 21:33N 54°35' E 010°41'1010.3
2016-May-29 20:33N 54°36' E 010°58'1010.5
2016-May-29 19:33N 54°34' E 011°16'1110.9
2016-May-29 18:33N 54°30' E 011°34'1110.6
2016-May-29 17:33N 54°28' E 011°51'1010.1
2016-May-29 16:32N 54°28' E 012°09'11 9.9
2016-May-29 15:23N 54°38' E 012°18'810.1
2016-May-29 14:33N 54°43' E 012°29'1410.1
2016-May-29 13:12N 54°49' E 012°50'910.0
2016-May-29 12:17N 54°53' E 013°05'8 9.9
2016-May-29 11:31N 54°55' E 013°17'2010.0
2016-May-29 09:33N 55°02' E 013°49'10 9.8
2016-May-29 08:33N 55°06' E 014°05'1110.1
2016-May-29 07:25N 55°15' E 014°17'910.3
2016-May-29 06:33N 55°22' E 014°27'1010.0
2016-May-29 05:33N 55°29' E 014°39'1010.0
2016-May-29 04:33N 55°34' E 014°54'1510.1
2016-May-29 03:04N 55°43' E 015°16'  
2016-May-26 09:06N 59°36' E 023°06'5 9.8
2016-May-26 08:33N 59°37' E 023°16'10 9.6
2016-May-26 07:33N 59°40' E 023°34'9 9.4
2016-May-26 06:33N 59°43' E 023°52'10 9.6
2016-May-26 05:28N 59°46' E 024°12'59 9.7
2016-May-25 23:24N 60°02' E 026°04'910.2
2016-May-25 22:32N 60°08' E 026°18'9 9.6
2016-May-25 21:33N 60°16' E 026°26'9 9.5
2016-May-25 20:33N 60°25' E 026°16'0 0.0
2016-May-25 11:28N 60°25' E 026°15'0 0.0
2016-May-25 10:31N 60°25' E 026°15'0 0.0
2016-May-25 09:28N 60°25' E 026°15'0 0.0
2016-May-25 08:31N 60°25' E 026°15'0 0.0
2016-May-25 07:28N 60°25' E 026°15'0 0.0
2016-May-25 06:22N 60°25' E 026°15'0 0.0
2016-May-25 04:28N 60°25' E 026°15'0 0.0
2016-May-25 03:31N 60°25' E 026°15'0 0.0
2016-May-25 02:31N 60°25' E 026°15'0 0.0
2016-May-25 01:31N 60°25' E 026°15'0 0.0
2016-May-25 00:31N 60°25' E 026°15'0 0.0
2016-May-24 23:31N 60°25' E 026°15'0 0.0
2016-May-24 22:28N 60°25' E 026°15'0 0.0
2016-May-24 21:31N 60°25' E 026°15'0 0.0
2016-May-24 20:28N 60°25' E 026°15'0 0.0
2016-May-24 19:31N 60°25' E 026°15'0 0.0
2016-May-24 18:22N 60°25' E 026°15'0 0.0
2016-May-24 17:10N 60°25' E 026°15'0 0.0
2016-May-24 16:28N 60°25' E 026°15'0 0.0
2016-May-24 15:16N 60°25' E 026°15'0 0.0
2016-May-24 10:25N 60°25' E 026°15'4 4.9
2016-May-24 09:33N 60°21' E 026°19'9 8.6
2016-May-24 08:33N 60°13' E 026°23'8 7.7
2016-May-24 07:33N 60°06' E 026°15'9 8.5
2016-May-24 06:27N 59°59' E 026°02'18 9.0
2016-May-24 04:27N 59°50' E 025°31'32 9.6
2016-May-24 01:08N 59°44' E 024°29'7 9.6
2016-May-24 00:25N 59°42' E 024°16'9 9.8
2016-May-23 23:32N 59°40' E 023°59'10 9.3
2016-May-23 22:29N 59°37' E 023°40'9 9.4
2016-May-23 21:31N 59°34' E 023°23'335 9.9
2016-May-22 11:33N 55°45' E 015°47'10 9.9
2016-May-22 10:33N 55°40' E 015°32'10 9.9
2016-May-22 09:33N 55°35' E 015°17'10 9.9
2016-May-22 08:33N 55°30' E 015°02'1010.2
2016-May-22 07:33N 55°25' E 014°46'10 9.9
2016-May-22 06:33N 55°19' E 014°33'1010.1
2016-May-22 05:33N 55°11' E 014°22'1010.3
2016-May-22 04:33N 55°03' E 014°10'1010.0
2016-May-22 03:33N 54°58' E 013°55'1010.2
2016-May-22 02:33N 54°55' E 013°38'10 9.8
2016-May-22 01:32N 54°51' E 013°22'2010.1
2016-May-21 23:33N 54°45' E 012°49'10 9.9
2016-May-21 22:33N 54°41' E 012°34'10 9.8
2016-May-21 21:30N 54°34' E 012°20'1110.2
2016-May-21 20:28N 54°25' E 012°10'9 9.5
2016-May-21 19:33N 54°25' E 011°55'9 9.3
2016-May-21 18:33N 54°26' E 011°40'9 8.8
2016-May-21 17:33N 54°31' E 011°26'9 9.1
2016-May-21 16:33N 54°34' E 011°12'10 9.9
2016-May-21 15:33N 54°34' E 010°55'1010.5
2016-May-21 14:33N 54°34' E 010°37'1010.0
2016-May-21 13:33N 54°30' E 010°21'10 9.7
2016-May-21 12:33N 54°22' E 010°11'2 1.7
2016-May-21 11:33N 54°22' E 010°08'5 5.1
2016-May-21 10:33N 54°21' E 009°59'7 7.5
2016-May-21 09:34N 54°21' E 009°47'4 3.8
2016-May-21 08:33N 54°18' E 009°43'5 4.7
2016-May-21 07:29N 54°15' E 009°37'8 7.9
2016-May-21 06:30N 54°10' E 009°26'7 7.5
2016-May-21 05:33N 54°04' E 009°19'8 8.0
2016-May-21 04:34N 53°57' E 009°14'5 4.8
2016-May-21 03:33N 53°53' E 009°09'7 6.9
2016-May-21 02:34N 53°51' E 008°58'9 8.7
2016-May-21 01:34N 53°52' E 008°43'9 8.9
2016-May-21 00:33N 53°58' E 008°31'  
Track history (hours):
 
Tides and Currents Weather Stations Pressure Air Temp Water Temp Dewpoint Dewpoint Depression Visibility Wind Speed Wind Dir Waves Ship Positions

Bettina K

Last reported at 2016-May-31 00:11 UTC. Time now 2016-May-31 10:03 UTC.
Position N 53°36' E 005°08'.

Length 82 m; draft 4.8 m.

Type: Ship. MMSI: 244730469.

Date/timePositionNaut miles runAvg speedWind from/ knotsBaromVisibWave heightAir tempDewpointWater temp
2016-May-31 00:11N 53°36' E 005°08'6 8.8
2016-May-30 23:33N 53°37' E 005°17'9 9.5
2016-May-30 22:33N 53°40' E 005°32'1110.6
2016-May-30 21:32N 53°43' E 005°50'1110.8
2016-May-30 20:33N 53°47' E 006°07'1111.2
2016-May-30 19:33N 53°50' E 006°25'1110.8
2016-May-30 18:33N 53°53' E 006°43'1010.2
2016-May-30 17:33N 53°55' E 006°59'10 9.6
2016-May-30 16:31N 53°57' E 007°16'9 9.2
2016-May-30 15:33N 53°60' E 007°30'9 9.2
2016-May-30 14:33N 54°02' E 007°46'9 9.0
2016-May-30 13:33N 54°01' E 008°01'10 9.5
2016-May-30 12:33N 54°01' E 008°17'1111.1
2016-May-30 11:32N 53°58' E 008°36'1212.2
2016-May-30 10:33N 53°50' E 008°52'1110.5
2016-May-30 09:33N 53°54' E 009°09'0 0.4
2016-May-30 08:33N 53°54' E 009°09'0 0.0
2016-May-30 07:33N 53°54' E 009°09'8 7.9
2016-May-30 06:33N 54°00' E 009°18'15 6.8
2016-May-30 04:23N 54°12' E 009°33'5 5.5
2016-May-30 03:28N 54°16' E 009°38'9 8.0
2016-May-30 02:21N 54°22' E 009°50'6 7.9
2016-May-30 01:33N 54°21' E 010°00'5 4.9
2016-May-30 00:33N 54°22' E 010°09'4 4.1
2016-May-29 23:33N 54°25' E 010°13'9 9.4
2016-May-29 22:33N 54°32' E 010°24'1010.0
2016-May-29 21:33N 54°35' E 010°41'1010.3
2016-May-29 20:33N 54°36' E 010°58'1010.5
2016-May-29 19:33N 54°34' E 011°16'1110.9
2016-May-29 18:33N 54°30' E 011°34'1110.6
2016-May-29 17:33N 54°28' E 011°51'1010.1
2016-May-29 16:32N 54°28' E 012°09'11 9.9
2016-May-29 15:23N 54°38' E 012°18'810.1
2016-May-29 14:33N 54°43' E 012°29'1410.1
2016-May-29 13:12N 54°49' E 012°50'910.0
2016-May-29 12:17N 54°53' E 013°05'8 9.9
2016-May-29 11:31N 54°55' E 013°17'2010.0
2016-May-29 09:33N 55°02' E 013°49'10 9.8
2016-May-29 08:33N 55°06' E 014°05'1110.1
2016-May-29 07:25N 55°15' E 014°17'910.3
2016-May-29 06:33N 55°22' E 014°27'1010.0
2016-May-29 05:33N 55°29' E 014°39'1010.0
2016-May-29 04:33N 55°34' E 014°54'1510.1
2016-May-29 03:04N 55°43' E 015°16'  
2016-May-26 09:06N 59°36' E 023°06'5 9.8
2016-May-26 08:33N 59°37' E 023°16'10 9.6
2016-May-26 07:33N 59°40' E 023°34'9 9.4
2016-May-26 06:33N 59°43' E 023°52'10 9.6
2016-May-26 05:28N 59°46' E 024°12'59 9.7
2016-May-25 23:24N 60°02' E 026°04'910.2
2016-May-25 22:32N 60°08' E 026°18'9 9.6
2016-May-25 21:33N 60°16' E 026°26'9 9.5
2016-May-25 20:33N 60°25' E 026°16'0 0.0
2016-May-25 11:28N 60°25' E 026°15'0 0.0
2016-May-25 10:31N 60°25' E 026°15'0 0.0
2016-May-25 09:28N 60°25' E 026°15'0 0.0
2016-May-25 08:31N 60°25' E 026°15'0 0.0
2016-May-25 07:28N 60°25' E 026°15'0 0.0
2016-May-25 06:22N 60°25' E 026°15'0 0.0
2016-May-25 04:28N 60°25' E 026°15'0 0.0
2016-May-25 03:31N 60°25' E 026°15'0 0.0
2016-May-25 02:31N 60°25' E 026°15'0 0.0
2016-May-25 01:31N 60°25' E 026°15'0 0.0
2016-May-25 00:31N 60°25' E 026°15'0 0.0
2016-May-24 23:31N 60°25' E 026°15'0 0.0
2016-May-24 22:28N 60°25' E 026°15'0 0.0
2016-May-24 21:31N 60°25' E 026°15'0 0.0
2016-May-24 20:28N 60°25' E 026°15'0 0.0
2016-May-24 19:31N 60°25' E 026°15'0 0.0
2016-May-24 18:22N 60°25' E 026°15'0 0.0
2016-May-24 17:10N 60°25' E 026°15'0 0.0
2016-May-24 16:28N 60°25' E 026°15'0 0.0
2016-May-24 15:16N 60°25' E 026°15'0 0.0
2016-May-24 10:25N 60°25' E 026°15'4 4.9
2016-May-24 09:33N 60°21' E 026°19'9 8.6
2016-May-24 08:33N 60°13' E 026°23'8 7.7
2016-May-24 07:33N 60°06' E 026°15'9 8.5
2016-May-24 06:27N 59°59' E 026°02'18 9.0
2016-May-24 04:27N 59°50' E 025°31'32 9.6
2016-May-24 01:08N 59°44' E 024°29'7 9.6
2016-May-24 00:25N 59°42' E 024°16'9 9.8
2016-May-23 23:32N 59°40' E 023°59'10 9.3
2016-May-23 22:29N 59°37' E 023°40'9 9.4
2016-May-23 21:31N 59°34' E 023°23'335 9.9
2016-May-22 11:33N 55°45' E 015°47'10 9.9
2016-May-22 10:33N 55°40' E 015°32'10 9.9
2016-May-22 09:33N 55°35' E 015°17'10 9.9
2016-May-22 08:33N 55°30' E 015°02'1010.2
2016-May-22 07:33N 55°25' E 014°46'10 9.9
2016-May-22 06:33N 55°19' E 014°33'1010.1
2016-May-22 05:33N 55°11' E 014°22'1010.3
2016-May-22 04:33N 55°03' E 014°10'1010.0
2016-May-22 03:33N 54°58' E 013°55'1010.2
2016-May-22 02:33N 54°55' E 013°38'10 9.8
2016-May-22 01:32N 54°51' E 013°22'2010.1
2016-May-21 23:33N 54°45' E 012°49'10 9.9
2016-May-21 22:33N 54°41' E 012°34'10 9.8
2016-May-21 21:30N 54°34' E 012°20'1110.2
2016-May-21 20:28N 54°25' E 012°10'9 9.5
2016-May-21 19:33N 54°25' E 011°55'9 9.3
2016-May-21 18:33N 54°26' E 011°40'9 8.8
2016-May-21 17:33N 54°31' E 011°26'9 9.1
2016-May-21 16:33N 54°34' E 011°12'10 9.9
2016-May-21 15:33N 54°34' E 010°55'1010.5
2016-May-21 14:33N 54°34' E 010°37'1010.0
2016-May-21 13:33N 54°30' E 010°21'10 9.7
2016-May-21 12:33N 54°22' E 010°11'2 1.7
2016-May-21 11:33N 54°22' E 010°08'5 5.1
2016-May-21 10:33N 54°21' E 009°59'7 7.5
2016-May-21 09:34N 54°21' E 009°47'4 3.8
2016-May-21 08:33N 54°18' E 009°43'5 4.7
2016-May-21 07:29N 54°15' E 009°37'8 7.9
2016-May-21 06:30N 54°10' E 009°26'7 7.5
2016-May-21 05:33N 54°04' E 009°19'8 8.0
2016-May-21 04:34N 53°57' E 009°14'5 4.8
2016-May-21 03:33N 53°53' E 009°09'7 6.9
2016-May-21 02:34N 53°51' E 008°58'9 8.7
2016-May-21 01:34N 53°52' E 008°43'9 8.9
2016-May-21 00:33N 53°58' E 008°31'  

Dump ship's entire track history